sensor_id;sensor_type;location;lat;lon;timestamp;P1;durP1;ratioP1;P2;durP2;ratioP2
42282;SDS011;28237;47.954;21.730;2024-01-07T00:00:33;7.97;;;5.03;;
42282;SDS011;28237;47.954;21.730;2024-01-07T00:02:58;6.65;;;4.30;;
42282;SDS011;28237;47.954;21.730;2024-01-07T00:05:23;7.13;;;4.78;;
42282;SDS011;28237;47.954;21.730;2024-01-07T00:07:49;6.60;;;5.03;;
42282;SDS011;28237;47.954;21.730;2024-01-07T00:10:15;6.20;;;4.85;;
42282;SDS011;28237;47.954;21.730;2024-01-07T00:12:41;8.93;;;5.13;;
42282;SDS011;28237;47.954;21.730;2024-01-07T00:15:06;9.23;;;5.10;;
42282;SDS011;28237;47.954;21.730;2024-01-07T00:17:32;7.82;;;5.60;;
42282;SDS011;28237;47.954;21.730;2024-01-07T00:19:57;8.23;;;5.00;;
42282;SDS011;28237;47.954;21.730;2024-01-07T00:22:22;5.43;;;4.00;;
42282;SDS011;28237;47.954;21.730;2024-01-07T00:24:48;7.10;;;4.77;;
42282;SDS011;28237;47.954;21.730;2024-01-07T00:27:13;7.40;;;5.43;;
42282;SDS011;28237;47.954;21.730;2024-01-07T00:29:38;7.87;;;5.50;;
42282;SDS011;28237;47.954;21.730;2024-01-07T00:32:03;6.10;;;4.90;;
42282;SDS011;28237;47.954;21.730;2024-01-07T00:34:29;6.18;;;4.55;;
42282;SDS011;28237;47.954;21.730;2024-01-07T00:36:54;6.63;;;5.05;;
42282;SDS011;28237;47.954;21.730;2024-01-07T00:39:20;6.20;;;4.47;;
42282;SDS011;28237;47.954;21.730;2024-01-07T00:41:46;7.03;;;5.32;;
42282;SDS011;28237;47.954;21.730;2024-01-07T00:44:11;5.73;;;4.83;;
42282;SDS011;28237;47.954;21.730;2024-01-07T00:46:36;8.90;;;4.73;;
42282;SDS011;28237;47.954;21.730;2024-01-07T00:49:01;7.47;;;4.90;;
42282;SDS011;28237;47.954;21.730;2024-01-07T00:51:29;6.15;;;4.50;;
42282;SDS011;28237;47.954;21.730;2024-01-07T00:53:54;9.23;;;5.05;;
42282;SDS011;28237;47.954;21.730;2024-01-07T00:56:19;7.67;;;4.50;;
42282;SDS011;28237;47.954;21.730;2024-01-07T00:58:45;6.70;;;5.07;;
42282;SDS011;28237;47.954;21.730;2024-01-07T01:01:10;5.97;;;4.55;;
42282;SDS011;28237;47.954;21.730;2024-01-07T01:03:35;7.17;;;4.97;;
42282;SDS011;28237;47.954;21.730;2024-01-07T01:06:00;6.83;;;5.13;;
42282;SDS011;28237;47.954;21.730;2024-01-07T01:08:27;7.25;;;5.22;;
42282;SDS011;28237;47.954;21.730;2024-01-07T01:10:52;6.10;;;4.82;;
42282;SDS011;28237;47.954;21.730;2024-01-07T01:13:18;9.57;;;5.63;;
42282;SDS011;28237;47.954;21.730;2024-01-07T01:15:43;7.77;;;5.33;;
42282;SDS011;28237;47.954;21.730;2024-01-07T01:18:08;7.18;;;5.07;;
42282;SDS011;28237;47.954;21.730;2024-01-07T01:20:33;7.13;;;5.17;;
42282;SDS011;28237;47.954;21.730;2024-01-07T01:22:59;7.53;;;5.63;;
42282;SDS011;28237;47.954;21.730;2024-01-07T01:25:24;8.60;;;5.73;;
42282;SDS011;28237;47.954;21.730;2024-01-07T01:27:49;6.13;;;4.55;;
42282;SDS011;28237;47.954;21.730;2024-01-07T01:30:15;7.47;;;5.40;;
42282;SDS011;28237;47.954;21.730;2024-01-07T01:32:41;9.88;;;5.78;;
42282;SDS011;28237;47.954;21.730;2024-01-07T01:35:06;6.72;;;4.65;;
42282;SDS011;28237;47.954;21.730;2024-01-07T01:37:31;8.00;;;5.40;;
42282;SDS011;28237;47.954;21.730;2024-01-07T01:39:59;8.85;;;5.95;;
42282;SDS011;28237;47.954;21.730;2024-01-07T01:42:25;6.82;;;4.82;;
42282;SDS011;28237;47.954;21.730;2024-01-07T01:44:50;7.80;;;5.25;;
42282;SDS011;28237;47.954;21.730;2024-01-07T01:47:15;9.32;;;6.22;;
42282;SDS011;28237;47.954;21.730;2024-01-07T01:49:41;6.97;;;5.25;;
42282;SDS011;28237;47.954;21.730;2024-01-07T01:52:06;5.93;;;4.95;;
42282;SDS011;28237;47.954;21.730;2024-01-07T01:54:32;7.20;;;5.15;;
42282;SDS011;28237;47.954;21.730;2024-01-07T01:56:57;5.32;;;4.75;;
42282;SDS011;28237;47.954;21.730;2024-01-07T01:59:22;6.32;;;5.10;;
42282;SDS011;28237;47.954;21.730;2024-01-07T02:01:48;8.57;;;5.27;;
42282;SDS011;28237;47.954;21.730;2024-01-07T02:04:14;5.90;;;4.82;;
42282;SDS011;28237;47.954;21.730;2024-01-07T02:06:39;7.90;;;5.03;;
42282;SDS011;28237;47.954;21.730;2024-01-07T02:09:04;6.30;;;5.20;;
42282;SDS011;28237;47.954;21.730;2024-01-07T02:11:30;5.87;;;4.50;;
42282;SDS011;28237;47.954;21.730;2024-01-07T02:13:55;5.72;;;4.93;;
42282;SDS011;28237;47.954;21.730;2024-01-07T02:16:20;6.10;;;4.57;;
42282;SDS011;28237;47.954;21.730;2024-01-07T02:18:46;5.70;;;4.15;;
42282;SDS011;28237;47.954;21.730;2024-01-07T02:21:12;6.57;;;4.47;;
42282;SDS011;28237;47.954;21.730;2024-01-07T02:23:38;6.05;;;4.55;;
42282;SDS011;28237;47.954;21.730;2024-01-07T02:26:03;5.95;;;4.28;;
42282;SDS011;28237;47.954;21.730;2024-01-07T02:28:32;4.72;;;3.72;;
42282;SDS011;28237;47.954;21.730;2024-01-07T02:30:57;5.40;;;3.75;;
42282;SDS011;28237;47.954;21.730;2024-01-07T02:33:22;6.07;;;4.77;;
42282;SDS011;28237;47.954;21.730;2024-01-07T02:35:48;7.03;;;4.93;;
42282;SDS011;28237;47.954;21.730;2024-01-07T02:38:13;5.63;;;4.18;;
42282;SDS011;28237;47.954;21.730;2024-01-07T02:40:38;7.45;;;4.05;;
42282;SDS011;28237;47.954;21.730;2024-01-07T02:43:04;6.87;;;4.47;;
42282;SDS011;28237;47.954;21.730;2024-01-07T02:45:29;6.07;;;4.23;;
42282;SDS011;28237;47.954;21.730;2024-01-07T02:47:54;3.93;;;3.37;;
42282;SDS011;28237;47.954;21.730;2024-01-07T02:50:19;5.40;;;3.45;;
42282;SDS011;28237;47.954;21.730;2024-01-07T02:52:47;5.18;;;4.07;;
42282;SDS011;28237;47.954;21.730;2024-01-07T02:55:12;5.05;;;3.55;;
42282;SDS011;28237;47.954;21.730;2024-01-07T02:57:41;3.85;;;3.50;;
42282;SDS011;28237;47.954;21.730;2024-01-07T03:00:06;5.27;;;3.67;;
42282;SDS011;28237;47.954;21.730;2024-01-07T03:02:32;3.40;;;3.08;;
42282;SDS011;28237;47.954;21.730;2024-01-07T03:04:58;4.95;;;3.92;;
42282;SDS011;28237;47.954;21.730;2024-01-07T03:07:23;2.97;;;2.67;;
42282;SDS011;28237;47.954;21.730;2024-01-07T03:09:48;3.33;;;3.00;;
42282;SDS011;28237;47.954;21.730;2024-01-07T03:12:17;3.63;;;3.17;;
42282;SDS011;28237;47.954;21.730;2024-01-07T03:14:42;2.88;;;2.63;;
42282;SDS011;28237;47.954;21.730;2024-01-07T03:17:07;4.53;;;2.97;;
42282;SDS011;28237;47.954;21.730;2024-01-07T03:19:33;4.97;;;2.80;;
42282;SDS011;28237;47.954;21.730;2024-01-07T03:21:58;3.40;;;3.10;;
42282;SDS011;28237;47.954;21.730;2024-01-07T03:24:23;3.88;;;2.65;;
42282;SDS011;28237;47.954;21.730;2024-01-07T03:26:48;4.43;;;3.17;;
42282;SDS011;28237;47.954;21.730;2024-01-07T03:29:14;2.75;;;2.25;;
42282;SDS011;28237;47.954;21.730;2024-01-07T03:31:39;5.20;;;3.50;;
42282;SDS011;28237;47.954;21.730;2024-01-07T03:34:04;3.03;;;2.65;;
42282;SDS011;28237;47.954;21.730;2024-01-07T03:36:30;3.40;;;3.05;;
42282;SDS011;28237;47.954;21.730;2024-01-07T03:38:55;5.20;;;2.43;;
42282;SDS011;28237;47.954;21.730;2024-01-07T03:41:20;2.80;;;2.47;;
42282;SDS011;28237;47.954;21.730;2024-01-07T03:43:46;3.22;;;2.38;;
42282;SDS011;28237;47.954;21.730;2024-01-07T03:46:11;3.42;;;2.80;;
42282;SDS011;28237;47.954;21.730;2024-01-07T03:48:37;3.60;;;2.85;;
42282;SDS011;28237;47.954;21.730;2024-01-07T03:51:02;2.47;;;2.27;;
42282;SDS011;28237;47.954;21.730;2024-01-07T03:53:27;3.25;;;2.28;;
42282;SDS011;28237;47.954;21.730;2024-01-07T03:55:52;3.07;;;2.00;;
42282;SDS011;28237;47.954;21.730;2024-01-07T03:58:18;2.75;;;2.10;;
42282;SDS011;28237;47.954;21.730;2024-01-07T04:00:43;2.17;;;1.63;;
42282;SDS011;28237;47.954;21.730;2024-01-07T04:03:08;2.47;;;2.10;;
42282;SDS011;28237;47.954;21.730;2024-01-07T04:05:34;3.00;;;2.20;;
42282;SDS011;28237;47.954;21.730;2024-01-07T04:08:00;2.70;;;2.20;;
42282;SDS011;28237;47.954;21.730;2024-01-07T04:10:26;2.08;;;1.95;;
42282;SDS011;28237;47.954;21.730;2024-01-07T04:12:51;1.83;;;1.70;;
42282;SDS011;28237;47.954;21.730;2024-01-07T04:15:16;2.90;;;2.07;;
42282;SDS011;28237;47.954;21.730;2024-01-07T04:17:43;1.50;;;1.35;;
42282;SDS011;28237;47.954;21.730;2024-01-07T04:20:08;1.40;;;1.30;;
42282;SDS011;28237;47.954;21.730;2024-01-07T04:22:33;1.90;;;1.50;;
42282;SDS011;28237;47.954;21.730;2024-01-07T04:24:59;4.28;;;1.30;;
42282;SDS011;28237;47.954;21.730;2024-01-07T04:27:24;1.40;;;1.08;;
42282;SDS011;28237;47.954;21.730;2024-01-07T04:29:52;1.40;;;1.05;;
42282;SDS011;28237;47.954;21.730;2024-01-07T04:32:18;1.50;;;1.10;;
42282;SDS011;28237;47.954;21.730;2024-01-07T04:34:43;3.85;;;1.27;;
42282;SDS011;28237;47.954;21.730;2024-01-07T04:37:08;1.15;;;1.10;;
42282;SDS011;28237;47.954;21.730;2024-01-07T04:39:33;1.40;;;1.30;;
42282;SDS011;28237;47.954;21.730;2024-01-07T04:41:59;2.93;;;1.67;;
42282;SDS011;28237;47.954;21.730;2024-01-07T04:44:24;1.63;;;1.53;;
42282;SDS011;28237;47.954;21.730;2024-01-07T04:46:49;1.02;;;0.93;;
42282;SDS011;28237;47.954;21.730;2024-01-07T04:49:15;1.20;;;0.70;;
42282;SDS011;28237;47.954;21.730;2024-01-07T04:51:40;2.00;;;1.20;;
42282;SDS011;28237;47.954;21.730;2024-01-07T04:54:05;1.13;;;0.83;;
42282;SDS011;28237;47.954;21.730;2024-01-07T04:56:31;0.70;;;0.67;;
42282;SDS011;28237;47.954;21.730;2024-01-07T04:58:56;1.30;;;1.00;;
42282;SDS011;28237;47.954;21.730;2024-01-07T05:01:21;1.03;;;0.60;;
42282;SDS011;28237;47.954;21.730;2024-01-07T05:03:47;1.47;;;0.70;;
42282;SDS011;28237;47.954;21.730;2024-01-07T05:06:12;1.77;;;0.93;;
42282;SDS011;28237;47.954;21.730;2024-01-07T05:08:37;1.10;;;0.93;;
42282;SDS011;28237;47.954;21.730;2024-01-07T05:11:05;1.55;;;1.25;;
42282;SDS011;28237;47.954;21.730;2024-01-07T05:13:31;1.45;;;1.05;;
42282;SDS011;28237;47.954;21.730;2024-01-07T05:15:56;1.45;;;1.15;;
42282;SDS011;28237;47.954;21.730;2024-01-07T05:18:22;3.65;;;0.77;;
42282;SDS011;28237;47.954;21.730;2024-01-07T05:20:48;1.13;;;0.90;;
42282;SDS011;28237;47.954;21.730;2024-01-07T05:23:13;0.80;;;0.65;;
42282;SDS011;28237;47.954;21.730;2024-01-07T05:25:38;2.42;;;1.40;;
42282;SDS011;28237;47.954;21.730;2024-01-07T05:28:04;2.28;;;1.60;;
42282;SDS011;28237;47.954;21.730;2024-01-07T05:30:29;2.25;;;1.05;;
42282;SDS011;28237;47.954;21.730;2024-01-07T05:32:54;4.03;;;0.88;;
42282;SDS011;28237;47.954;21.730;2024-01-07T05:35:20;1.80;;;0.63;;
42282;SDS011;28237;47.954;21.730;2024-01-07T05:37:45;1.63;;;0.43;;
42282;SDS011;28237;47.954;21.730;2024-01-07T05:40:10;0.50;;;0.43;;
42282;SDS011;28237;47.954;21.730;2024-01-07T05:42:36;4.07;;;0.40;;
42282;SDS011;28237;47.954;21.730;2024-01-07T05:45:01;0.40;;;0.30;;
42282;SDS011;28237;47.954;21.730;2024-01-07T05:47:27;0.30;;;0.30;;
42282;SDS011;28237;47.954;21.730;2024-01-07T05:49:53;0.40;;;0.40;;
42282;SDS011;28237;47.954;21.730;2024-01-07T05:52:18;0.68;;;0.30;;
42282;SDS011;28237;47.954;21.730;2024-01-07T05:54:43;0.60;;;0.30;;
42282;SDS011;28237;47.954;21.730;2024-01-07T05:57:08;0.50;;;0.47;;
42282;SDS011;28237;47.954;21.730;2024-01-07T05:59:34;0.52;;;0.52;;
42282;SDS011;28237;47.954;21.730;2024-01-07T06:01:59;0.17;;;0.13;;
42282;SDS011;28237;47.954;21.730;2024-01-07T06:04:24;0.52;;;0.22;;
42282;SDS011;28237;47.954;21.730;2024-01-07T06:06:50;0.73;;;0.43;;
42282;SDS011;28237;47.954;21.730;2024-01-07T06:09:15;0.23;;;0.20;;
42282;SDS011;28237;47.954;21.730;2024-01-07T06:11:40;0.40;;;0.30;;
42282;SDS011;28237;47.954;21.730;2024-01-07T06:14:05;0.33;;;0.33;;
42282;SDS011;28237;47.954;21.730;2024-01-07T06:16:31;0.40;;;0.10;;
42282;SDS011;28237;47.954;21.730;2024-01-07T06:18:56;0.20;;;0.20;;
42282;SDS011;28237;47.954;21.730;2024-01-07T06:21:21;0.22;;;0.20;;
42282;SDS011;28237;47.954;21.730;2024-01-07T06:23:47;0.30;;;0.30;;
42282;SDS011;28237;47.954;21.730;2024-01-07T06:26:12;0.40;;;0.20;;
42282;SDS011;28237;47.954;21.730;2024-01-07T06:28:37;0.43;;;0.23;;
42282;SDS011;28237;47.954;21.730;2024-01-07T06:31:03;1.08;;;0.20;;
42282;SDS011;28237;47.954;21.730;2024-01-07T06:33:29;0.20;;;0.20;;
42282;SDS011;28237;47.954;21.730;2024-01-07T06:35:54;0.30;;;0.20;;
42282;SDS011;28237;47.954;21.730;2024-01-07T06:38:19;0.28;;;0.20;;
42282;SDS011;28237;47.954;21.730;2024-01-07T06:40:44;0.68;;;0.30;;
42282;SDS011;28237;47.954;21.730;2024-01-07T06:43:10;0.20;;;0.20;;
42282;SDS011;28237;47.954;21.730;2024-01-07T06:45:35;1.45;;;0.40;;
42282;SDS011;28237;47.954;21.730;2024-01-07T06:48:00;0.47;;;0.20;;
42282;SDS011;28237;47.954;21.730;2024-01-07T06:50:26;0.38;;;0.20;;
42282;SDS011;28237;47.954;21.730;2024-01-07T06:52:51;0.45;;;0.45;;
42282;SDS011;28237;47.954;21.730;2024-01-07T06:55:16;1.10;;;0.60;;
42282;SDS011;28237;47.954;21.730;2024-01-07T06:57:41;0.80;;;0.40;;
42282;SDS011;28237;47.954;21.730;2024-01-07T07:00:07;0.35;;;0.17;;
42282;SDS011;28237;47.954;21.730;2024-01-07T07:02:33;2.03;;;0.40;;
42282;SDS011;28237;47.954;21.730;2024-01-07T07:04:58;0.20;;;0.20;;
42282;SDS011;28237;47.954;21.730;2024-01-07T07:07:23;0.67;;;0.30;;
42282;SDS011;28237;47.954;21.730;2024-01-07T07:09:49;0.20;;;0.20;;
42282;SDS011;28237;47.954;21.730;2024-01-07T07:12:14;0.20;;;0.20;;
42282;SDS011;28237;47.954;21.730;2024-01-07T07:14:39;0.40;;;0.20;;
42282;SDS011;28237;47.954;21.730;2024-01-07T07:17:05;0.20;;;0.20;;
42282;SDS011;28237;47.954;21.730;2024-01-07T07:19:30;0.40;;;0.28;;
42282;SDS011;28237;47.954;21.730;2024-01-07T07:21:56;0.55;;;0.22;;
42282;SDS011;28237;47.954;21.730;2024-01-07T07:24:21;0.38;;;0.20;;
42282;SDS011;28237;47.954;21.730;2024-01-07T07:26:47;0.77;;;0.57;;
42282;SDS011;28237;47.954;21.730;2024-01-07T07:29:12;0.20;;;0.20;;
42282;SDS011;28237;47.954;21.730;2024-01-07T07:31:37;0.57;;;0.28;;
42282;SDS011;28237;47.954;21.730;2024-01-07T07:34:04;0.40;;;0.30;;
42282;SDS011;28237;47.954;21.730;2024-01-07T07:36:29;0.20;;;0.20;;
42282;SDS011;28237;47.954;21.730;2024-01-07T07:38:54;0.28;;;0.25;;
42282;SDS011;28237;47.954;21.730;2024-01-07T07:41:20;1.02;;;0.55;;
42282;SDS011;28237;47.954;21.730;2024-01-07T07:43:45;0.20;;;0.20;;
42282;SDS011;28237;47.954;21.730;2024-01-07T07:46:10;0.60;;;0.37;;
42282;SDS011;28237;47.954;21.730;2024-01-07T07:48:36;0.40;;;0.40;;
42282;SDS011;28237;47.954;21.730;2024-01-07T07:51:02;0.60;;;0.30;;
42282;SDS011;28237;47.954;21.730;2024-01-07T07:53:27;0.50;;;0.40;;
42282;SDS011;28237;47.954;21.730;2024-01-07T07:55:52;0.75;;;0.40;;
42282;SDS011;28237;47.954;21.730;2024-01-07T07:58:18;0.85;;;0.45;;
42282;SDS011;28237;47.954;21.730;2024-01-07T08:00:43;0.70;;;0.40;;
42282;SDS011;28237;47.954;21.730;2024-01-07T08:03:09;0.65;;;0.30;;
42282;SDS011;28237;47.954;21.730;2024-01-07T08:05:35;0.70;;;0.40;;
42282;SDS011;28237;47.954;21.730;2024-01-07T08:08:00;0.40;;;0.30;;
42282;SDS011;28237;47.954;21.730;2024-01-07T08:10:25;0.50;;;0.20;;
42282;SDS011;28237;47.954;21.730;2024-01-07T08:12:51;0.68;;;0.30;;
42282;SDS011;28237;47.954;21.730;2024-01-07T08:15:16;0.35;;;0.25;;
42282;SDS011;28237;47.954;21.730;2024-01-07T08:17:42;0.43;;;0.30;;
42282;SDS011;28237;47.954;21.730;2024-01-07T08:20:09;0.60;;;0.30;;
42282;SDS011;28237;47.954;21.730;2024-01-07T08:22:34;2.42;;;0.52;;
42282;SDS011;28237;47.954;21.730;2024-01-07T08:24:59;0.60;;;0.35;;
42282;SDS011;28237;47.954;21.730;2024-01-07T08:27:25;0.30;;;0.30;;
42282;SDS011;28237;47.954;21.730;2024-01-07T08:29:50;0.40;;;0.40;;
42282;SDS011;28237;47.954;21.730;2024-01-07T08:32:15;0.83;;;0.33;;
42282;SDS011;28237;47.954;21.730;2024-01-07T08:34:40;0.73;;;0.40;;
42282;SDS011;28237;47.954;21.730;2024-01-07T08:37:07;2.47;;;0.50;;
42282;SDS011;28237;47.954;21.730;2024-01-07T08:39:32;0.20;;;0.20;;
42282;SDS011;28237;47.954;21.730;2024-01-07T08:41:57;0.50;;;0.50;;
42282;SDS011;28237;47.954;21.730;2024-01-07T08:44:23;1.85;;;0.65;;
42282;SDS011;28237;47.954;21.730;2024-01-07T08:46:48;0.67;;;0.40;;
42282;SDS011;28237;47.954;21.730;2024-01-07T08:49:13;0.40;;;0.40;;
42282;SDS011;28237;47.954;21.730;2024-01-07T08:51:39;0.60;;;0.20;;
42282;SDS011;28237;47.954;21.730;2024-01-07T08:54:04;0.52;;;0.52;;
42282;SDS011;28237;47.954;21.730;2024-01-07T08:56:29;3.33;;;1.30;;
42282;SDS011;28237;47.954;21.730;2024-01-07T08:58:55;2.13;;;0.93;;
42282;SDS011;28237;47.954;21.730;2024-01-07T09:01:20;0.85;;;0.85;;
42282;SDS011;28237;47.954;21.730;2024-01-07T09:03:45;1.65;;;1.00;;
42282;SDS011;28237;47.954;21.730;2024-01-07T09:06:11;1.15;;;0.68;;
42282;SDS011;28237;47.954;21.730;2024-01-07T09:08:36;0.43;;;0.43;;
42282;SDS011;28237;47.954;21.730;2024-01-07T09:11:04;0.47;;;0.40;;
42282;SDS011;28237;47.954;21.730;2024-01-07T09:13:31;0.47;;;0.45;;
42282;SDS011;28237;47.954;21.730;2024-01-07T09:15:57;0.52;;;0.50;;
42282;SDS011;28237;47.954;21.730;2024-01-07T09:18:22;1.25;;;0.50;;
42282;SDS011;28237;47.954;21.730;2024-01-07T09:20:47;0.90;;;0.60;;
42282;SDS011;28237;47.954;21.730;2024-01-07T09:23:13;0.98;;;0.52;;
42282;SDS011;28237;47.954;21.730;2024-01-07T09:25:40;0.82;;;0.50;;
42282;SDS011;28237;47.954;21.730;2024-01-07T09:28:05;0.60;;;0.50;;
42282;SDS011;28237;47.954;21.730;2024-01-07T09:30:30;0.80;;;0.60;;
42282;SDS011;28237;47.954;21.730;2024-01-07T09:32:56;0.60;;;0.60;;
42282;SDS011;28237;47.954;21.730;2024-01-07T09:35:21;0.68;;;0.52;;
42282;SDS011;28237;47.954;21.730;2024-01-07T09:37:46;1.05;;;0.77;;
42282;SDS011;28237;47.954;21.730;2024-01-07T09:40:12;1.35;;;0.75;;
42282;SDS011;28237;47.954;21.730;2024-01-07T09:42:37;5.82;;;3.28;;
42282;SDS011;28237;47.954;21.730;2024-01-07T09:45:02;1.15;;;0.80;;
42282;SDS011;28237;47.954;21.730;2024-01-07T09:47:31;1.30;;;0.60;;
42282;SDS011;28237;47.954;21.730;2024-01-07T09:49:56;0.40;;;0.40;;
42282;SDS011;28237;47.954;21.730;2024-01-07T09:52:22;0.65;;;0.60;;
42282;SDS011;28237;47.954;21.730;2024-01-07T09:54:49;1.15;;;0.68;;
42282;SDS011;28237;47.954;21.730;2024-01-07T09:57:16;1.02;;;0.35;;
42282;SDS011;28237;47.954;21.730;2024-01-07T09:59:41;1.80;;;0.75;;
42282;SDS011;28237;47.954;21.730;2024-01-07T10:02:06;0.77;;;0.75;;
42282;SDS011;28237;47.954;21.730;2024-01-07T10:04:32;0.90;;;0.55;;
42282;SDS011;28237;47.954;21.730;2024-01-07T10:06:57;1.13;;;0.50;;
42282;SDS011;28237;47.954;21.730;2024-01-07T10:09:33;1.52;;;0.90;;
42282;SDS011;28237;47.954;21.730;2024-01-07T10:11:58;2.53;;;1.52;;
42282;SDS011;28237;47.954;21.730;2024-01-07T10:14:23;1.00;;;0.80;;
42282;SDS011;28237;47.954;21.730;2024-01-07T10:16:51;1.00;;;0.90;;
42282;SDS011;28237;47.954;21.730;2024-01-07T10:19:20;1.15;;;0.80;;
42282;SDS011;28237;47.954;21.730;2024-01-07T10:21:46;0.63;;;0.50;;
42282;SDS011;28237;47.954;21.730;2024-01-07T10:24:12;1.17;;;0.60;;
42282;SDS011;28237;47.954;21.730;2024-01-07T10:26:37;1.98;;;0.80;;
42282;SDS011;28237;47.954;21.730;2024-01-07T10:29:03;1.02;;;0.70;;
42282;SDS011;28237;47.954;21.730;2024-01-07T10:31:28;1.17;;;1.10;;
42282;SDS011;28237;47.954;21.730;2024-01-07T10:33:54;1.45;;;0.80;;
42282;SDS011;28237;47.954;21.730;2024-01-07T10:36:21;1.10;;;0.73;;
42282;SDS011;28237;47.954;21.730;2024-01-07T10:38:46;1.35;;;0.95;;
42282;SDS011;28237;47.954;21.730;2024-01-07T10:41:12;0.95;;;0.85;;
42282;SDS011;28237;47.954;21.730;2024-01-07T10:43:38;1.33;;;1.20;;
42282;SDS011;28237;47.954;21.730;2024-01-07T10:46:04;0.82;;;0.80;;
42282;SDS011;28237;47.954;21.730;2024-01-07T10:48:30;2.47;;;1.17;;
42282;SDS011;28237;47.954;21.730;2024-01-07T10:50:57;1.25;;;1.00;;
42282;SDS011;28237;47.954;21.730;2024-01-07T10:53:24;1.95;;;0.93;;
42282;SDS011;28237;47.954;21.730;2024-01-07T10:56:00;1.77;;;0.80;;
42282;SDS011;28237;47.954;21.730;2024-01-07T10:58:25;2.47;;;1.13;;
42282;SDS011;28237;47.954;21.730;2024-01-07T11:00:51;1.52;;;1.00;;
42282;SDS011;28237;47.954;21.730;2024-01-07T11:03:24;1.48;;;1.20;;
42282;SDS011;28237;47.954;21.730;2024-01-07T11:05:54;0.90;;;0.68;;
42282;SDS011;28237;47.954;21.730;2024-01-07T11:08:28;2.97;;;0.82;;
42282;SDS011;28237;47.954;21.730;2024-01-07T11:11:06;4.55;;;1.23;;
42282;SDS011;28237;47.954;21.730;2024-01-07T11:13:36;13.45;;;5.35;;
42282;SDS011;28237;47.954;21.730;2024-01-07T11:16:02;2.95;;;2.28;;
42282;SDS011;28237;47.954;21.730;2024-01-07T11:18:28;4.85;;;2.30;;
42282;SDS011;28237;47.954;21.730;2024-01-07T11:20:59;4.80;;;2.88;;
42282;SDS011;28237;47.954;21.730;2024-01-07T11:23:29;3.63;;;2.38;;
42282;SDS011;28237;47.954;21.730;2024-01-07T11:25:59;1.27;;;0.98;;
42282;SDS011;28237;47.954;21.730;2024-01-07T11:31:08;1.35;;;0.60;;
42282;SDS011;28237;47.954;21.730;2024-01-07T11:33:36;1.80;;;1.40;;
42282;SDS011;28237;47.954;21.730;2024-01-07T11:36:02;1.05;;;0.95;;
42282;SDS011;28237;47.954;21.730;2024-01-07T11:38:28;1.00;;;0.90;;
42282;SDS011;28237;47.954;21.730;2024-01-07T11:40:54;0.70;;;0.52;;
42282;SDS011;28237;47.954;21.730;2024-01-07T11:43:20;1.52;;;1.38;;
42282;SDS011;28237;47.954;21.730;2024-01-07T11:45:45;1.95;;;1.00;;
42282;SDS011;28237;47.954;21.730;2024-01-07T11:48:11;1.25;;;1.15;;
42282;SDS011;28237;47.954;21.730;2024-01-07T11:50:36;1.73;;;1.10;;
42282;SDS011;28237;47.954;21.730;2024-01-07T11:53:01;1.08;;;1.00;;
42282;SDS011;28237;47.954;21.730;2024-01-07T11:55:27;1.98;;;1.15;;
42282;SDS011;28237;47.954;21.730;2024-01-07T11:57:55;2.85;;;1.25;;
42282;SDS011;28237;47.954;21.730;2024-01-07T12:00:20;1.73;;;1.33;;
42282;SDS011;28237;47.954;21.730;2024-01-07T12:02:46;1.65;;;1.45;;
42282;SDS011;28237;47.954;21.730;2024-01-07T12:05:11;1.33;;;0.83;;
42282;SDS011;28237;47.954;21.730;2024-01-07T12:07:40;1.77;;;1.25;;
42282;SDS011;28237;47.954;21.730;2024-01-07T12:10:09;2.33;;;1.58;;
42282;SDS011;28237;47.954;21.730;2024-01-07T12:12:37;3.03;;;1.20;;
42282;SDS011;28237;47.954;21.730;2024-01-07T12:15:03;3.05;;;1.20;;
42282;SDS011;28237;47.954;21.730;2024-01-07T12:17:29;1.38;;;1.23;;
42282;SDS011;28237;47.954;21.730;2024-01-07T12:19:56;1.50;;;1.08;;
42282;SDS011;28237;47.954;21.730;2024-01-07T12:22:21;3.28;;;1.90;;
42282;SDS011;28237;47.954;21.730;2024-01-07T12:24:46;2.13;;;1.73;;
42282;SDS011;28237;47.954;21.730;2024-01-07T12:27:12;1.38;;;1.27;;
42282;SDS011;28237;47.954;21.730;2024-01-07T12:29:39;1.75;;;1.17;;
42282;SDS011;28237;47.954;21.730;2024-01-07T12:32:05;1.65;;;1.55;;
42282;SDS011;28237;47.954;21.730;2024-01-07T12:34:30;2.53;;;1.63;;
42282;SDS011;28237;47.954;21.730;2024-01-07T12:36:56;1.80;;;1.63;;
42282;SDS011;28237;47.954;21.730;2024-01-07T12:39:21;1.77;;;1.10;;
42282;SDS011;28237;47.954;21.730;2024-01-07T12:41:47;2.40;;;1.48;;
42282;SDS011;28237;47.954;21.730;2024-01-07T12:44:12;1.77;;;1.10;;
42282;SDS011;28237;47.954;21.730;2024-01-07T12:46:37;2.17;;;1.40;;
42282;SDS011;28237;47.954;21.730;2024-01-07T12:49:04;2.00;;;1.33;;
42282;SDS011;28237;47.954;21.730;2024-01-07T12:51:29;1.70;;;1.40;;
42282;SDS011;28237;47.954;21.730;2024-01-07T12:53:54;2.22;;;1.42;;
42282;SDS011;28237;47.954;21.730;2024-01-07T12:56:21;1.90;;;1.42;;
42282;SDS011;28237;47.954;21.730;2024-01-07T12:58:47;3.05;;;1.55;;
42282;SDS011;28237;47.954;21.730;2024-01-07T13:01:12;1.45;;;1.10;;
42282;SDS011;28237;47.954;21.730;2024-01-07T13:03:37;1.42;;;1.33;;
42282;SDS011;28237;47.954;21.730;2024-01-07T13:06:03;2.30;;;1.20;;
42282;SDS011;28237;47.954;21.730;2024-01-07T13:08:28;1.67;;;1.20;;
42282;SDS011;28237;47.954;21.730;2024-01-07T13:10:54;1.83;;;1.25;;
42282;SDS011;28237;47.954;21.730;2024-01-07T13:13:20;1.60;;;1.33;;
42282;SDS011;28237;47.954;21.730;2024-01-07T13:15:45;1.45;;;1.08;;
42282;SDS011;28237;47.954;21.730;2024-01-07T13:18:11;1.27;;;1.13;;
42282;SDS011;28237;47.954;21.730;2024-01-07T13:20:39;1.80;;;1.02;;
42282;SDS011;28237;47.954;21.730;2024-01-07T13:23:07;2.20;;;1.65;;
42282;SDS011;28237;47.954;21.730;2024-01-07T13:25:32;2.30;;;1.10;;
42282;SDS011;28237;47.954;21.730;2024-01-07T13:27:57;6.07;;;3.60;;
42282;SDS011;28237;47.954;21.730;2024-01-07T13:30:24;4.78;;;1.88;;
42282;SDS011;28237;47.954;21.730;2024-01-07T13:32:49;2.05;;;1.67;;
42282;SDS011;28237;47.954;21.730;2024-01-07T13:35:16;1.45;;;1.27;;
42282;SDS011;28237;47.954;21.730;2024-01-07T13:37:42;3.22;;;1.52;;
42282;SDS011;28237;47.954;21.730;2024-01-07T13:40:08;1.90;;;1.27;;
42282;SDS011;28237;47.954;21.730;2024-01-07T13:42:35;1.30;;;1.20;;
42282;SDS011;28237;47.954;21.730;2024-01-07T13:45:00;2.17;;;1.50;;
42282;SDS011;28237;47.954;21.730;2024-01-07T13:47:26;1.70;;;1.60;;
42282;SDS011;28237;47.954;21.730;2024-01-07T13:49:51;2.97;;;1.88;;
42282;SDS011;28237;47.954;21.730;2024-01-07T13:52:16;2.13;;;1.48;;
42282;SDS011;28237;47.954;21.730;2024-01-07T13:54:42;2.47;;;2.03;;
42282;SDS011;28237;47.954;21.730;2024-01-07T13:57:07;2.40;;;2.20;;
42282;SDS011;28237;47.954;21.730;2024-01-07T13:59:33;1.87;;;1.70;;
42282;SDS011;28237;47.954;21.730;2024-01-07T14:01:58;2.40;;;1.77;;
42282;SDS011;28237;47.954;21.730;2024-01-07T14:04:24;2.70;;;1.98;;
42282;SDS011;28237;47.954;21.730;2024-01-07T14:06:55;2.47;;;1.45;;
42282;SDS011;28237;47.954;21.730;2024-01-07T14:09:21;2.40;;;2.13;;
42282;SDS011;28237;47.954;21.730;2024-01-07T14:11:46;1.98;;;1.80;;
42282;SDS011;28237;47.954;21.730;2024-01-07T14:14:11;3.60;;;2.78;;
42282;SDS011;28237;47.954;21.730;2024-01-07T14:16:37;3.58;;;2.47;;
42282;SDS011;28237;47.954;21.730;2024-01-07T14:19:02;3.65;;;2.03;;
42282;SDS011;28237;47.954;21.730;2024-01-07T14:21:28;3.75;;;2.28;;
42282;SDS011;28237;47.954;21.730;2024-01-07T14:23:54;3.92;;;2.42;;
42282;SDS011;28237;47.954;21.730;2024-01-07T14:26:19;2.67;;;2.23;;